Walker Lake, Nevada
Current Conditions -  °F | °C
As of 9:56 AM on Saturday 25 Oct 2014 (Local Time) from KNFL Reporting Station
Scattered Clouds Scattered Clouds  
Wind Chill: 72°   Ceiling: Unl
Heat Index: 72°   Visibility: 10mi
Dew Point: 23°   Wind: 18mph
Humidity: 16%   Direction: 170°S
Pressure: 29.9"   Gusts: 26mph
Location:  38.6331°N, 118.656°W
Report Text: KNFL 251656Z 17016G23KT 10SM FEW100 SCT180 SCT250 22/M05 A2990 RMK AO2 SLP100 ACSL DSNT S T02221050
Loading
Personal Weather Stations






























Interactive Weather Map
Tropical Storm Tracking
New forecast layout! Learn more

10-Day Weather Forecast

Advertisements
Track Severe Weather on mobile